Des Moines, Iowa
Current Conditions -  °F | °C
As of 8:54 PM on Friday 28 Nov 2014 (Local Time) from KDSM Reporting Station
Few Clouds Few Clouds  
Wind Chill:   Ceiling: Unl
Heat Index:   Visibility: 10mi
Dew Point: -1°   Wind: 6mph
Humidity: 73%   Direction: 90°E
Pressure: 29.7"   Gusts: NA
Location:  41.59°N, 93.61°W
Report Text: KDSM 290254Z 09005KT 10SM FEW250 03/M01 A2970 RMK AO2 SLP067 T00331011 58017
Loading
Personal Weather Stations






























Interactive Weather Map New forecast layout! Learn more

10-Day Weather Forecast

Advertisements
Track Severe Weather on mobile